Siemreap, Cambodia

6:03 PM ICT on April 21, 2015 (GMT +0700)
Siem Reap | | Change Station
CLOSE
Current Station
Airport
Location: Siemreap,
Elevation: 49 ft
Nearby Weather Stations

Elev 49 ft 13.37 °N, 103.85 °E | Updated 33 minutes ago

Scattered Clouds
Scattered Clouds
97 °F
Feels Like 99 °F
N
4
Wind Variable Wind from WSW

Today
High -- | Low -- °F
--% Chance of Precip.
Yesterday
High -- | Low -- °F
Precip. -- in
5:48 AM 6:18 PM
Waxing Crescent, 10% visible
Pressure 29.62 in
Visibility 5.6 miles
Clouds Scattered Clouds 1700 ft
Heat Index 99 °F
Dew Point 64 °F
Humidity 34%
Rainfall 0.00 in
Snow Depth Not available.
UV 1 out of 12
Pollen Not available.
Air Quality Not available.
Flu Activity Not available.
METAR VDSR 211030Z 24003KT 9000 SCT017 36/18 Q1003

More Conditions Fewer Conditions

Pressure 29.62 in
Visibility 5.6 miles
Clouds Scattered Clouds 1700 ft
Heat Index 99 °F
Dew Point 64 °F
Humidity 34%
Rainfall 0.00 in
Snow Depth Not available.
UV 1 out of 12
Pollen Not available.
Air Quality Not available.
Flu Activity Not available.
METAR VDSR 211030Z 24003KT 9000 SCT017 36/18 Q1003

More Conditions Fewer Conditions

10-Day Weather Forecast

Almanac

Astronomy

Apr. 21, 2015 Rise Set
Actual Time
Civil Twilight
Nautical Twilight
Astronomical Twilight
Moon
Length of Visible Light
Length of Day
Tomorrow will be .
, % of the Moon is Illuminated

Today's Extremes

Country Highs Country Lows

Community

WunderPhotos

Upload Photos

1,815,342 photos uploaded!

WunderBlogs® & News

Nearby

Air Quality

  Air Quality AQ Index Pollutant
Not available.

Snow Depth

Station Depth Elevation

Earthquake Activity

City Distance Mag. Time & Date
Minimum magnitude displayed is 2.5.

Coastal Water Temperatures

Place Temperature

Stations

Nearby Weather Stations

Station Location Temp. Windchill Dew Point Humidity Wind Precip. Elev Updated Type